sensor_id;sensor_type;location;lat;lon;timestamp;P1;durP1;ratioP1;P2;durP2;ratioP2
6177;SDS011;3122;48.208;11.174;2023-05-02T00:01:31;7.53;;;6.73;;
6177;SDS011;3122;48.208;11.174;2023-05-02T00:06:32;7.10;;;6.40;;
6177;SDS011;3122;48.208;11.174;2023-05-02T00:11:32;7.20;;;6.50;;
6177;SDS011;3122;48.208;11.174;2023-05-02T00:16:33;7.60;;;6.23;;
6177;SDS011;3122;48.208;11.174;2023-05-02T00:21:33;7.50;;;6.80;;
6177;SDS011;3122;48.208;11.174;2023-05-02T00:26:34;7.23;;;6.50;;
6177;SDS011;3122;48.208;11.174;2023-05-02T00:31:34;10.13;;;7.10;;
6177;SDS011;3122;48.208;11.174;2023-05-02T00:36:35;10.23;;;8.10;;
6177;SDS011;3122;48.208;11.174;2023-05-02T00:41:35;12.40;;;8.57;;
6177;SDS011;3122;48.208;11.174;2023-05-02T00:46:36;9.47;;;7.30;;
6177;SDS011;3122;48.208;11.174;2023-05-02T00:51:37;7.90;;;7.10;;
6177;SDS011;3122;48.208;11.174;2023-05-02T00:56:38;8.57;;;7.67;;
6177;SDS011;3122;48.208;11.174;2023-05-02T01:13:02;6.17;;;5.57;;
6177;SDS011;3122;48.208;11.174;2023-05-02T01:18:12;6.53;;;5.83;;
6177;SDS011;3122;48.208;11.174;2023-05-02T01:23:22;6.80;;;6.10;;
6177;SDS011;3122;48.208;11.174;2023-05-02T01:28:35;6.87;;;6.17;;
6177;SDS011;3122;48.208;11.174;2023-05-02T01:34:16;7.70;;;6.77;;
6177;SDS011;3122;48.208;11.174;2023-05-02T01:39:23;8.30;;;7.23;;
6177;SDS011;3122;48.208;11.174;2023-05-02T01:44:24;9.93;;;7.50;;
6177;SDS011;3122;48.208;11.174;2023-05-02T01:49:28;7.90;;;6.43;;
6177;SDS011;3122;48.208;11.174;2023-05-02T01:54:32;7.17;;;6.43;;
6177;SDS011;3122;48.208;11.174;2023-05-02T01:59:35;9.03;;;7.53;;
6177;SDS011;3122;48.208;11.174;2023-05-02T02:04:39;7.37;;;6.67;;
6177;SDS011;3122;48.208;11.174;2023-05-02T02:09:40;7.00;;;6.30;;
6177;SDS011;3122;48.208;11.174;2023-05-02T02:14:42;8.60;;;6.80;;
6177;SDS011;3122;48.208;11.174;2023-05-02T02:19:47;10.50;;;6.50;;
6177;SDS011;3122;48.208;11.174;2023-05-02T02:24:51;13.57;;;9.87;;
6177;SDS011;3122;48.208;11.174;2023-05-02T02:29:52;8.90;;;6.40;;
6177;SDS011;3122;48.208;11.174;2023-05-02T02:34:53;7.30;;;6.50;;
6177;SDS011;3122;48.208;11.174;2023-05-02T02:50:30;6.07;;;5.57;;
6177;SDS011;3122;48.208;11.174;2023-05-02T03:00:46;10.10;;;7.17;;
6177;SDS011;3122;48.208;11.174;2023-05-02T03:05:48;8.70;;;7.10;;
6177;SDS011;3122;48.208;11.174;2023-05-02T03:10:50;10.37;;;7.77;;
6177;SDS011;3122;48.208;11.174;2023-05-02T03:20:51;14.20;;;10.73;;
6177;SDS011;3122;48.208;11.174;2023-05-02T03:25:51;39.23;;;22.70;;
6177;SDS011;3122;48.208;11.174;2023-05-02T03:30:52;9.00;;;8.10;;
6177;SDS011;3122;48.208;11.174;2023-05-02T03:35:52;9.20;;;7.40;;
6177;SDS011;3122;48.208;11.174;2023-05-02T03:40:55;8.53;;;7.63;;
6177;SDS011;3122;48.208;11.174;2023-05-02T03:45:57;7.30;;;6.60;;
6177;SDS011;3122;48.208;11.174;2023-05-02T03:51:03;6.80;;;6.10;;
6177;SDS011;3122;48.208;11.174;2023-05-02T03:56:06;7.70;;;6.33;;
6177;SDS011;3122;48.208;11.174;2023-05-02T04:01:13;7.43;;;6.70;;
6177;SDS011;3122;48.208;11.174;2023-05-02T04:06:15;7.07;;;6.23;;
6177;SDS011;3122;48.208;11.174;2023-05-02T04:11:15;6.77;;;5.73;;
6177;SDS011;3122;48.208;11.174;2023-05-02T04:16:16;6.60;;;5.90;;
6177;SDS011;3122;48.208;11.174;2023-05-02T04:21:16;8.47;;;7.10;;
6177;SDS011;3122;48.208;11.174;2023-05-02T04:26:17;7.50;;;6.40;;
6177;SDS011;3122;48.208;11.174;2023-05-02T04:31:17;9.33;;;7.30;;
6177;SDS011;3122;48.208;11.174;2023-05-02T04:36:18;7.50;;;6.70;;
6177;SDS011;3122;48.208;11.174;2023-05-02T04:41:18;7.23;;;6.20;;
6177;SDS011;3122;48.208;11.174;2023-05-02T04:46:20;7.97;;;6.23;;
6177;SDS011;3122;48.208;11.174;2023-05-02T04:51:21;8.53;;;5.97;;
6177;SDS011;3122;48.208;11.174;2023-05-02T04:56:21;6.97;;;5.97;;
6177;SDS011;3122;48.208;11.174;2023-05-02T05:01:22;7.27;;;6.10;;
6177;SDS011;3122;48.208;11.174;2023-05-02T05:06:23;6.90;;;6.20;;
6177;SDS011;3122;48.208;11.174;2023-05-02T05:11:24;9.67;;;7.43;;
6177;SDS011;3122;48.208;11.174;2023-05-02T05:16:25;7.90;;;7.10;;
6177;SDS011;3122;48.208;11.174;2023-05-02T05:21:25;8.90;;;7.20;;
6177;SDS011;3122;48.208;11.174;2023-05-02T05:26:26;7.33;;;6.63;;
6177;SDS011;3122;48.208;11.174;2023-05-02T05:31:26;8.27;;;7.30;;
6177;SDS011;3122;48.208;11.174;2023-05-02T05:36:27;9.77;;;6.77;;
6177;SDS011;3122;48.208;11.174;2023-05-02T05:41:28;7.57;;;6.77;;
6177;SDS011;3122;48.208;11.174;2023-05-02T05:46:29;7.97;;;7.10;;
6177;SDS011;3122;48.208;11.174;2023-05-02T05:51:30;8.10;;;7.27;;
6177;SDS011;3122;48.208;11.174;2023-05-02T05:56:30;9.50;;;7.90;;
6177;SDS011;3122;48.208;11.174;2023-05-02T06:01:31;9.50;;;7.57;;
6177;SDS011;3122;48.208;11.174;2023-05-02T06:06:33;8.83;;;6.70;;
6177;SDS011;3122;48.208;11.174;2023-05-02T06:11:35;8.40;;;6.87;;
6177;SDS011;3122;48.208;11.174;2023-05-02T06:16:36;10.20;;;8.47;;
6177;SDS011;3122;48.208;11.174;2023-05-02T06:21:36;9.17;;;8.20;;
6177;SDS011;3122;48.208;11.174;2023-05-02T06:26:37;10.07;;;8.97;;
6177;SDS011;3122;48.208;11.174;2023-05-02T06:31:37;11.10;;;8.33;;
6177;SDS011;3122;48.208;11.174;2023-05-02T06:36:38;8.27;;;7.10;;
6177;SDS011;3122;48.208;11.174;2023-05-02T06:41:38;10.00;;;8.20;;
6177;SDS011;3122;48.208;11.174;2023-05-02T06:46:39;10.83;;;8.60;;
6177;SDS011;3122;48.208;11.174;2023-05-02T06:51:40;11.10;;;8.63;;
6177;SDS011;3122;48.208;11.174;2023-05-02T06:56:41;9.73;;;7.70;;
6177;SDS011;3122;48.208;11.174;2023-05-02T07:01:44;9.80;;;8.10;;
6177;SDS011;3122;48.208;11.174;2023-05-02T07:06:45;9.60;;;8.60;;
6177;SDS011;3122;48.208;11.174;2023-05-02T07:11:46;11.17;;;8.33;;
6177;SDS011;3122;48.208;11.174;2023-05-02T07:16:46;10.30;;;8.47;;
6177;SDS011;3122;48.208;11.174;2023-05-02T07:21:47;10.40;;;9.07;;
6177;SDS011;3122;48.208;11.174;2023-05-02T07:26:48;11.47;;;9.37;;
6177;SDS011;3122;48.208;11.174;2023-05-02T07:31:48;10.50;;;9.07;;
6177;SDS011;3122;48.208;11.174;2023-05-02T07:36:49;12.23;;;9.30;;
6177;SDS011;3122;48.208;11.174;2023-05-02T07:41:53;11.73;;;10.03;;
6177;SDS011;3122;48.208;11.174;2023-05-02T07:46:54;13.40;;;9.50;;
6177;SDS011;3122;48.208;11.174;2023-05-02T07:51:55;10.50;;;9.40;;
6177;SDS011;3122;48.208;11.174;2023-05-02T07:56:56;13.80;;;10.97;;
6177;SDS011;3122;48.208;11.174;2023-05-02T08:02:00;11.13;;;9.47;;
6177;SDS011;3122;48.208;11.174;2023-05-02T08:07:02;12.93;;;10.87;;
6177;SDS011;3122;48.208;11.174;2023-05-02T08:12:02;11.93;;;10.20;;
6177;SDS011;3122;48.208;11.174;2023-05-02T08:17:03;12.63;;;10.60;;
6177;SDS011;3122;48.208;11.174;2023-05-02T08:22:03;13.20;;;10.40;;
6177;SDS011;3122;48.208;11.174;2023-05-02T08:27:04;11.17;;;9.70;;
6177;SDS011;3122;48.208;11.174;2023-05-02T08:32:05;12.93;;;10.03;;
6177;SDS011;3122;48.208;11.174;2023-05-02T08:37:09;11.63;;;10.37;;
6177;SDS011;3122;48.208;11.174;2023-05-02T08:42:11;11.93;;;10.30;;
6177;SDS011;3122;48.208;11.174;2023-05-02T08:47:12;9.77;;;8.77;;
6177;SDS011;3122;48.208;11.174;2023-05-02T08:52:14;10.33;;;9.10;;
6177;SDS011;3122;48.208;11.174;2023-05-02T08:57:17;10.53;;;9.43;;
6177;SDS011;3122;48.208;11.174;2023-05-02T09:07:50;12.20;;;10.40;;
6177;SDS011;3122;48.208;11.174;2023-05-02T09:12:51;11.00;;;9.90;;
6177;SDS011;3122;48.208;11.174;2023-05-02T09:17:52;11.43;;;10.20;;
6177;SDS011;3122;48.208;11.174;2023-05-02T09:22:52;10.70;;;9.60;;
6177;SDS011;3122;48.208;11.174;2023-05-02T09:27:53;11.17;;;9.97;;
6177;SDS011;3122;48.208;11.174;2023-05-02T09:32:55;10.27;;;9.13;;
6177;SDS011;3122;48.208;11.174;2023-05-02T09:37:56;10.63;;;9.33;;
6177;SDS011;3122;48.208;11.174;2023-05-02T09:42:57;12.83;;;10.50;;
6177;SDS011;3122;48.208;11.174;2023-05-02T09:48:00;14.40;;;10.10;;
6177;SDS011;3122;48.208;11.174;2023-05-02T09:53:05;14.27;;;11.30;;
6177;SDS011;3122;48.208;11.174;2023-05-02T09:58:19;14.47;;;10.20;;
6177;SDS011;3122;48.208;11.174;2023-05-02T10:03:22;13.60;;;11.20;;
6177;SDS011;3122;48.208;11.174;2023-05-02T10:08:25;13.87;;;10.27;;
6177;SDS011;3122;48.208;11.174;2023-05-02T10:13:27;13.20;;;10.90;;
6177;SDS011;3122;48.208;11.174;2023-05-02T10:24:01;11.27;;;9.90;;
6177;SDS011;3122;48.208;11.174;2023-05-02T10:29:03;13.50;;;9.83;;
6177;SDS011;3122;48.208;11.174;2023-05-02T10:34:04;11.70;;;9.03;;
6177;SDS011;3122;48.208;11.174;2023-05-02T10:39:09;11.70;;;9.77;;
6177;SDS011;3122;48.208;11.174;2023-05-02T10:44:10;10.50;;;9.30;;
6177;SDS011;3122;48.208;11.174;2023-05-02T10:49:11;10.57;;;8.97;;
6177;SDS011;3122;48.208;11.174;2023-05-02T10:59:26;14.43;;;10.10;;
6177;SDS011;3122;48.208;11.174;2023-05-02T11:20:34;12.03;;;10.73;;
6177;SDS011;3122;48.208;11.174;2023-05-02T11:25:37;14.80;;;12.50;;
6177;SDS011;3122;48.208;11.174;2023-05-02T11:30:43;13.40;;;12.00;;
6177;SDS011;3122;48.208;11.174;2023-05-02T11:35:47;12.90;;;10.50;;
6177;SDS011;3122;48.208;11.174;2023-05-02T11:40:48;11.93;;;10.73;;
6177;SDS011;3122;48.208;11.174;2023-05-02T11:45:51;12.70;;;10.57;;
6177;SDS011;3122;48.208;11.174;2023-05-02T11:50:58;12.63;;;11.00;;
6177;SDS011;3122;48.208;11.174;2023-05-02T11:56:06;11.00;;;9.83;;
6177;SDS011;3122;48.208;11.174;2023-05-02T12:01:14;11.87;;;10.67;;
6177;SDS011;3122;48.208;11.174;2023-05-02T12:06:16;13.33;;;11.93;;
6177;SDS011;3122;48.208;11.174;2023-05-02T12:11:20;12.90;;;11.50;;
6177;SDS011;3122;48.208;11.174;2023-05-02T12:16:21;12.70;;;11.13;;
6177;SDS011;3122;48.208;11.174;2023-05-02T12:21:22;11.50;;;10.30;;
6177;SDS011;3122;48.208;11.174;2023-05-02T12:26:23;10.13;;;9.13;;
6177;SDS011;3122;48.208;11.174;2023-05-02T12:31:28;15.60;;;9.60;;
6177;SDS011;3122;48.208;11.174;2023-05-02T12:36:31;10.63;;;9.53;;
6177;SDS011;3122;48.208;11.174;2023-05-02T12:41:34;11.47;;;10.27;;
6177;SDS011;3122;48.208;11.174;2023-05-02T12:46:36;11.20;;;9.70;;
6177;SDS011;3122;48.208;11.174;2023-05-02T12:51:37;12.90;;;10.70;;
6177;SDS011;3122;48.208;11.174;2023-05-02T12:56:39;11.83;;;10.20;;
6177;SDS011;3122;48.208;11.174;2023-05-02T13:01:40;10.67;;;9.57;;
6177;SDS011;3122;48.208;11.174;2023-05-02T13:06:40;10.77;;;9.70;;
6177;SDS011;3122;48.208;11.174;2023-05-02T13:11:41;10.13;;;9.13;;
6177;SDS011;3122;48.208;11.174;2023-05-02T13:16:41;13.70;;;9.70;;
6177;SDS011;3122;48.208;11.174;2023-05-02T13:21:42;10.93;;;9.83;;
6177;SDS011;3122;48.208;11.174;2023-05-02T13:26:42;10.00;;;9.00;;
6177;SDS011;3122;48.208;11.174;2023-05-02T13:31:43;10.20;;;9.20;;
6177;SDS011;3122;48.208;11.174;2023-05-02T13:36:44;9.70;;;8.80;;
6177;SDS011;3122;48.208;11.174;2023-05-02T13:41:45;10.30;;;9.30;;
6177;SDS011;3122;48.208;11.174;2023-05-02T13:46:45;10.77;;;9.70;;
6177;SDS011;3122;48.208;11.174;2023-05-02T13:51:46;11.60;;;9.60;;
6177;SDS011;3122;48.208;11.174;2023-05-02T13:56:47;11.40;;;10.20;;
6177;SDS011;3122;48.208;11.174;2023-05-02T14:01:48;24.83;;;12.13;;
6177;SDS011;3122;48.208;11.174;2023-05-02T14:06:48;7.10;;;6.37;;
6177;SDS011;3122;48.208;11.174;2023-05-02T14:11:49;7.03;;;6.33;;
6177;SDS011;3122;48.208;11.174;2023-05-02T14:16:50;7.33;;;6.33;;
6177;SDS011;3122;48.208;11.174;2023-05-02T14:21:50;7.37;;;6.60;;
6177;SDS011;3122;48.208;11.174;2023-05-02T14:26:51;5.60;;;5.20;;
6177;SDS011;3122;48.208;11.174;2023-05-02T14:31:51;5.80;;;5.20;;
6177;SDS011;3122;48.208;11.174;2023-05-02T14:36:52;7.50;;;6.13;;
6177;SDS011;3122;48.208;11.174;2023-05-02T14:41:52;6.03;;;5.43;;
6177;SDS011;3122;48.208;11.174;2023-05-02T14:46:53;6.80;;;6.10;;
6177;SDS011;3122;48.208;11.174;2023-05-02T14:51:55;6.70;;;6.10;;
6177;SDS011;3122;48.208;11.174;2023-05-02T14:56:55;6.50;;;5.90;;
6177;SDS011;3122;48.208;11.174;2023-05-02T15:01:56;6.07;;;5.57;;
6177;SDS011;3122;48.208;11.174;2023-05-02T15:06:58;6.00;;;5.50;;
6177;SDS011;3122;48.208;11.174;2023-05-02T15:11:59;5.00;;;4.60;;
6177;SDS011;3122;48.208;11.174;2023-05-02T15:17:01;4.80;;;4.40;;
6177;SDS011;3122;48.208;11.174;2023-05-02T15:22:02;4.97;;;4.50;;
6177;SDS011;3122;48.208;11.174;2023-05-02T15:27:02;5.00;;;4.60;;
6177;SDS011;3122;48.208;11.174;2023-05-02T15:32:03;5.43;;;4.93;;
6177;SDS011;3122;48.208;11.174;2023-05-02T15:37:04;5.73;;;5.23;;
6177;SDS011;3122;48.208;11.174;2023-05-02T15:42:05;5.43;;;5.03;;
6177;SDS011;3122;48.208;11.174;2023-05-02T15:47:05;7.63;;;5.87;;
6177;SDS011;3122;48.208;11.174;2023-05-02T15:52:06;6.10;;;5.63;;
6177;SDS011;3122;48.208;11.174;2023-05-02T15:57:06;5.33;;;4.83;;
6177;SDS011;3122;48.208;11.174;2023-05-02T16:02:07;36.93;;;24.50;;
6177;SDS011;3122;48.208;11.174;2023-05-02T16:07:08;33.73;;;29.77;;
6177;SDS011;3122;48.208;11.174;2023-05-02T16:12:09;10.53;;;9.63;;
6177;SDS011;3122;48.208;11.174;2023-05-02T16:17:10;10.50;;;9.50;;
6177;SDS011;3122;48.208;11.174;2023-05-02T16:22:10;8.57;;;7.80;;
6177;SDS011;3122;48.208;11.174;2023-05-02T16:27:11;12.97;;;11.67;;
6177;SDS011;3122;48.208;11.174;2023-05-02T16:32:11;8.00;;;6.67;;
6177;SDS011;3122;48.208;11.174;2023-05-02T16:37:12;7.30;;;6.60;;
6177;SDS011;3122;48.208;11.174;2023-05-02T16:42:13;8.10;;;6.63;;
6177;SDS011;3122;48.208;11.174;2023-05-02T16:47:13;7.67;;;6.87;;
6177;SDS011;3122;48.208;11.174;2023-05-02T16:52:14;7.20;;;6.60;;
6177;SDS011;3122;48.208;11.174;2023-05-02T16:57:15;7.80;;;7.10;;
6177;SDS011;3122;48.208;11.174;2023-05-02T17:02:18;6.70;;;6.17;;
6177;SDS011;3122;48.208;11.174;2023-05-02T17:07:20;8.83;;;6.90;;
6177;SDS011;3122;48.208;11.174;2023-05-02T17:12:21;7.23;;;6.50;;
6177;SDS011;3122;48.208;11.174;2023-05-02T17:17:21;7.23;;;6.20;;
6177;SDS011;3122;48.208;11.174;2023-05-02T17:22:22;6.30;;;5.70;;
6177;SDS011;3122;48.208;11.174;2023-05-02T17:27:23;6.40;;;5.80;;
6177;SDS011;3122;48.208;11.174;2023-05-02T17:32:24;7.00;;;6.07;;
6177;SDS011;3122;48.208;11.174;2023-05-02T17:37:24;6.40;;;5.80;;
6177;SDS011;3122;48.208;11.174;2023-05-02T17:42:25;5.43;;;4.93;;
6177;SDS011;3122;48.208;11.174;2023-05-02T17:47:25;6.17;;;5.57;;
6177;SDS011;3122;48.208;11.174;2023-05-02T17:52:26;5.30;;;4.83;;
6177;SDS011;3122;48.208;11.174;2023-05-02T17:57:27;6.00;;;5.30;;
6177;SDS011;3122;48.208;11.174;2023-05-02T18:02:27;7.20;;;6.50;;
6177;SDS011;3122;48.208;11.174;2023-05-02T18:07:28;6.93;;;6.37;;
6177;SDS011;3122;48.208;11.174;2023-05-02T18:12:30;8.00;;;7.27;;
6177;SDS011;3122;48.208;11.174;2023-05-02T18:17:31;7.07;;;6.47;;
6177;SDS011;3122;48.208;11.174;2023-05-02T18:22:32;7.80;;;7.07;;
6177;SDS011;3122;48.208;11.174;2023-05-02T18:27:32;6.83;;;6.23;;
6177;SDS011;3122;48.208;11.174;2023-05-02T18:32:33;7.20;;;6.30;;
6177;SDS011;3122;48.208;11.174;2023-05-02T18:37:34;6.30;;;5.73;;
6177;SDS011;3122;48.208;11.174;2023-05-02T18:42:35;6.30;;;5.70;;
6177;SDS011;3122;48.208;11.174;2023-05-02T18:47:35;6.57;;;5.97;;
6177;SDS011;3122;48.208;11.174;2023-05-02T18:52:36;8.70;;;7.40;;
6177;SDS011;3122;48.208;11.174;2023-05-02T18:57:36;7.20;;;6.50;;
6177;SDS011;3122;48.208;11.174;2023-05-02T19:02:37;6.53;;;5.93;;
6177;SDS011;3122;48.208;11.174;2023-05-02T19:07:38;8.10;;;7.00;;
6177;SDS011;3122;48.208;11.174;2023-05-02T19:12:38;6.93;;;6.33;;
6177;SDS011;3122;48.208;11.174;2023-05-02T19:17:39;7.50;;;6.70;;
6177;SDS011;3122;48.208;11.174;2023-05-02T19:22:39;7.47;;;6.60;;
6177;SDS011;3122;48.208;11.174;2023-05-02T19:27:41;7.30;;;6.60;;
6177;SDS011;3122;48.208;11.174;2023-05-02T19:32:44;7.63;;;5.70;;
6177;SDS011;3122;48.208;11.174;2023-05-02T19:37:44;6.90;;;6.13;;
6177;SDS011;3122;48.208;11.174;2023-05-02T19:42:45;7.63;;;6.83;;
6177;SDS011;3122;48.208;11.174;2023-05-02T19:47:45;12.90;;;10.70;;
6177;SDS011;3122;48.208;11.174;2023-05-02T19:52:46;22.63;;;14.23;;
6177;SDS011;3122;48.208;11.174;2023-05-02T19:57:46;17.23;;;13.60;;
6177;SDS011;3122;48.208;11.174;2023-05-02T20:02:47;10.30;;;9.03;;
6177;SDS011;3122;48.208;11.174;2023-05-02T20:07:48;9.57;;;8.20;;
6177;SDS011;3122;48.208;11.174;2023-05-02T20:12:48;8.90;;;8.00;;
6177;SDS011;3122;48.208;11.174;2023-05-02T20:17:49;9.30;;;8.33;;
6177;SDS011;3122;48.208;11.174;2023-05-02T20:22:50;9.73;;;8.73;;
6177;SDS011;3122;48.208;11.174;2023-05-02T20:27:50;9.67;;;8.17;;
6177;SDS011;3122;48.208;11.174;2023-05-02T20:32:51;8.53;;;7.43;;
6177;SDS011;3122;48.208;11.174;2023-05-02T20:37:52;8.30;;;7.40;;
6177;SDS011;3122;48.208;11.174;2023-05-02T20:42:52;8.60;;;7.57;;
6177;SDS011;3122;48.208;11.174;2023-05-02T20:47:53;14.77;;;9.50;;
6177;SDS011;3122;48.208;11.174;2023-05-02T20:52:54;9.27;;;8.13;;
6177;SDS011;3122;48.208;11.174;2023-05-02T20:57:55;8.37;;;7.40;;
6177;SDS011;3122;48.208;11.174;2023-05-02T21:02:55;9.80;;;8.57;;
6177;SDS011;3122;48.208;11.174;2023-05-02T21:07:56;7.90;;;7.10;;
6177;SDS011;3122;48.208;11.174;2023-05-02T21:12:57;9.80;;;8.10;;
6177;SDS011;3122;48.208;11.174;2023-05-02T21:18:00;8.50;;;7.27;;
6177;SDS011;3122;48.208;11.174;2023-05-02T21:23:02;8.60;;;7.63;;
6177;SDS011;3122;48.208;11.174;2023-05-02T21:28:03;13.60;;;10.50;;
6177;SDS011;3122;48.208;11.174;2023-05-02T21:33:03;12.23;;;8.40;;
6177;SDS011;3122;48.208;11.174;2023-05-02T21:38:04;13.63;;;9.90;;
6177;SDS011;3122;48.208;11.174;2023-05-02T21:43:05;14.73;;;9.80;;
6177;SDS011;3122;48.208;11.174;2023-05-02T21:48:05;10.83;;;9.20;;
6177;SDS011;3122;48.208;11.174;2023-05-02T21:53:06;14.07;;;9.90;;
6177;SDS011;3122;48.208;11.174;2023-05-02T21:58:08;10.87;;;9.40;;
6177;SDS011;3122;48.208;11.174;2023-05-02T22:03:10;12.03;;;9.73;;
6177;SDS011;3122;48.208;11.174;2023-05-02T22:08:11;9.60;;;8.60;;
6177;SDS011;3122;48.208;11.174;2023-05-02T22:13:12;13.33;;;9.60;;
6177;SDS011;3122;48.208;11.174;2023-05-02T22:18:14;8.93;;;7.67;;
6177;SDS011;3122;48.208;11.174;2023-05-02T22:23:15;8.73;;;7.93;;
6177;SDS011;3122;48.208;11.174;2023-05-02T22:28:16;8.00;;;7.20;;
6177;SDS011;3122;48.208;11.174;2023-05-02T22:33:16;9.90;;;8.70;;
6177;SDS011;3122;48.208;11.174;2023-05-02T22:38:18;9.00;;;7.80;;
6177;SDS011;3122;48.208;11.174;2023-05-02T22:43:19;7.83;;;6.97;;
6177;SDS011;3122;48.208;11.174;2023-05-02T22:48:19;8.93;;;7.67;;
6177;SDS011;3122;48.208;11.174;2023-05-02T22:53:20;9.70;;;7.60;;
6177;SDS011;3122;48.208;11.174;2023-05-02T22:58:20;7.03;;;6.33;;
6177;SDS011;3122;48.208;11.174;2023-05-02T23:03:21;6.00;;;5.50;;
6177;SDS011;3122;48.208;11.174;2023-05-02T23:08:21;6.43;;;5.83;;
6177;SDS011;3122;48.208;11.174;2023-05-02T23:13:22;7.00;;;6.10;;
6177;SDS011;3122;48.208;11.174;2023-05-02T23:18:23;6.80;;;6.10;;
6177;SDS011;3122;48.208;11.174;2023-05-02T23:23:23;5.40;;;4.90;;
6177;SDS011;3122;48.208;11.174;2023-05-02T23:28:24;6.37;;;5.77;;
6177;SDS011;3122;48.208;11.174;2023-05-02T23:33:25;8.13;;;5.97;;
6177;SDS011;3122;48.208;11.174;2023-05-02T23:38:25;6.70;;;6.00;;
6177;SDS011;3122;48.208;11.174;2023-05-02T23:43:26;9.03;;;6.30;;
6177;SDS011;3122;48.208;11.174;2023-05-02T23:48:28;7.90;;;6.60;;
6177;SDS011;3122;48.208;11.174;2023-05-02T23:53:29;7.13;;;6.43;;
6177;SDS011;3122;48.208;11.174;2023-05-02T23:58:29;7.50;;;6.70;;
